createdAt,value
2022-11-28T00:00:27.840Z,8.40
2022-11-28T00:02:57.855Z,7.60
2022-11-28T00:05:27.447Z,7.50
2022-11-28T00:07:57.666Z,6.65
2022-11-28T00:10:27.393Z,7.12
2022-11-28T00:12:57.178Z,6.80
2022-11-28T00:15:26.610Z,6.60
2022-11-28T00:17:56.342Z,6.80
2022-11-28T00:20:26.144Z,5.70
2022-11-28T00:22:55.881Z,5.77
2022-11-28T00:25:25.617Z,6.77
2022-11-28T00:27:55.659Z,6.22
2022-11-28T00:30:25.982Z,6.57
2022-11-28T00:32:55.741Z,6.80
2022-11-28T00:35:25.509Z,6.58
2022-11-28T00:37:55.247Z,6.50
2022-11-28T00:40:25.015Z,6.40
2022-11-28T00:42:55.034Z,6.55
2022-11-28T00:45:24.654Z,5.90
2022-11-28T00:47:54.713Z,5.47
2022-11-28T00:50:24.475Z,5.97
2022-11-28T00:52:54.225Z,6.03
2022-11-28T00:55:23.954Z,6.10
2022-11-28T00:57:55.137Z,6.10
2022-11-28T01:00:24.636Z,6.50
2022-11-28T01:02:54.855Z,6.00
2022-11-28T01:05:24.578Z,6.22
2022-11-28T01:07:54.688Z,6.37
2022-11-28T01:10:24.468Z,5.90
2022-11-28T01:12:54.174Z,6.70
2022-11-28T01:15:23.994Z,6.00
2022-11-28T01:17:53.717Z,5.83
2022-11-28T01:20:23.452Z,5.85
2022-11-28T01:22:53.201Z,6.13
2022-11-28T01:25:22.868Z,6.00
2022-11-28T01:27:52.737Z,6.03
2022-11-28T01:30:22.533Z,5.65
2022-11-28T01:32:52.625Z,5.95
2022-11-28T01:35:22.494Z,6.33
2022-11-28T01:37:52.518Z,5.80
2022-11-28T01:40:22.588Z,6.10
2022-11-28T01:42:52.140Z,6.05
2022-11-28T01:45:30.477Z,5.87
2022-11-28T01:48:03.527Z,5.70
2022-11-28T01:50:36.018Z,6.00
2022-11-28T01:53:09.115Z,6.07
2022-11-28T01:55:53.706Z,6.53
2022-11-28T01:58:23.689Z,5.13
2022-11-28T02:00:53.920Z,5.30
2022-11-28T02:03:29.588Z,4.93
2022-11-28T02:05:59.102Z,4.97
2022-11-28T02:08:30.521Z,4.83
2022-11-28T02:11:27.267Z,4.63
2022-11-28T02:14:32.708Z,5.43
2022-11-28T02:17:05.530Z,5.60
2022-11-28T02:19:55.986Z,4.93
2022-11-28T02:22:37.433Z,6.07
2022-11-28T02:25:14.012Z,5.23
2022-11-28T02:28:12.339Z,5.50
2022-11-28T02:30:50.651Z,5.50
2022-11-28T02:33:26.165Z,5.50
2022-11-28T02:36:16.640Z,5.77
2022-11-28T02:38:52.344Z,5.37
2022-11-28T02:41:36.512Z,6.60
2022-11-28T02:44:16.667Z,5.97
2022-11-28T02:46:49.844Z,6.17
2022-11-28T02:49:34.037Z,6.73
2022-11-28T02:52:19.661Z,6.37
2022-11-28T02:54:51.975Z,6.03
2022-11-28T02:57:22.021Z,7.30
2022-11-28T02:59:52.017Z,6.80
2022-11-28T03:02:28.975Z,6.40
2022-11-28T03:05:04.630Z,6.20
2022-11-28T03:08:03.179Z,6.30
2022-11-28T03:10:47.861Z,5.60
2022-11-28T03:13:20.634Z,5.90
2022-11-28T03:15:59.208Z,5.73
2022-11-28T03:18:34.808Z,5.30
2022-11-28T03:21:19.754Z,4.95
2022-11-28T03:24:04.469Z,5.00
2022-11-28T03:26:46.329Z,4.47
2022-11-28T03:29:22.197Z,4.87
2022-11-28T03:32:01.100Z,4.75
2022-11-28T03:34:36.283Z,4.77
2022-11-28T03:37:14.681Z,4.23
2022-11-28T03:39:47.817Z,5.22
2022-11-28T03:42:25.901Z,4.90
2022-11-28T03:45:13.471Z,4.50
2022-11-28T03:47:47.105Z,5.43
2022-11-28T03:50:22.579Z,5.20
2022-11-28T03:52:59.128Z,5.37
2022-11-28T03:55:40.284Z,5.77
2022-11-28T03:58:19.493Z,5.80
2022-11-28T04:00:54.867Z,5.20
2022-11-28T04:03:30.382Z,5.70
2022-11-28T04:06:08.677Z,5.77
2022-11-28T04:08:42.119Z,5.78
2022-11-28T04:11:41.308Z,6.65
2022-11-28T04:14:29.402Z,5.76
2022-11-28T04:17:04.852Z,5.37
2022-11-28T04:19:40.120Z,5.87
2022-11-28T04:22:17.076Z,5.90
2022-11-28T04:25:01.380Z,5.37
2022-11-28T04:27:34.182Z,5.27
2022-11-28T04:32:53.174Z,5.50
2022-11-28T04:35:28.545Z,5.72
2022-11-28T04:38:00.529Z,5.70
2022-11-28T04:40:33.466Z,5.80
2022-11-28T04:43:11.771Z,5.90
2022-11-28T04:45:47.363Z,5.60
2022-11-28T04:48:17.319Z,5.97
2022-11-28T04:50:50.154Z,5.37
2022-11-28T04:53:28.572Z,6.07
2022-11-28T04:56:01.602Z,5.47
2022-11-28T04:58:45.596Z,5.80
2022-11-28T05:01:20.988Z,5.97
2022-11-28T05:03:51.049Z,5.63
2022-11-28T05:06:26.659Z,5.83
2022-11-28T05:08:56.738Z,5.97
2022-11-28T05:11:27.525Z,5.87
2022-11-28T05:13:57.717Z,6.25
2022-11-28T05:16:27.604Z,5.83
2022-11-28T05:18:57.547Z,6.27
2022-11-28T05:21:27.292Z,5.70
2022-11-28T05:23:57.018Z,6.33
2022-11-28T05:26:26.509Z,5.83
2022-11-28T05:28:57.005Z,5.80
2022-11-28T05:31:26.838Z,6.13
2022-11-28T05:33:57.460Z,5.70
2022-11-28T05:36:26.900Z,5.50
2022-11-28T05:38:56.801Z,5.57
2022-11-28T05:41:29.376Z,5.50
2022-11-28T05:44:00.157Z,6.33
2022-11-28T05:46:30.638Z,6.10
2022-11-28T05:49:00.184Z,5.90
2022-11-28T05:51:29.917Z,5.93
2022-11-28T05:53:59.817Z,6.37
2022-11-28T05:56:29.579Z,5.20
2022-11-28T05:58:59.748Z,6.20
2022-11-28T06:01:31.031Z,5.93
2022-11-28T06:04:01.969Z,5.60
2022-11-28T06:06:33.751Z,5.70
2022-11-28T06:09:04.835Z,5.70
2022-11-28T06:11:35.609Z,5.67
2022-11-28T06:14:06.519Z,6.00
2022-11-28T06:16:36.621Z,6.17
2022-11-28T06:19:07.319Z,5.92
2022-11-28T06:21:37.296Z,6.33
2022-11-28T06:24:08.755Z,5.77
2022-11-28T06:26:38.546Z,5.33
2022-11-28T06:29:08.438Z,5.90
2022-11-28T06:31:38.240Z,6.00
2022-11-28T06:34:12.021Z,6.03
2022-11-28T06:36:41.783Z,6.07
2022-11-28T06:39:15.324Z,6.20
2022-11-28T06:41:45.388Z,5.90
2022-11-28T06:44:16.290Z,6.50
2022-11-28T06:46:46.309Z,6.47
2022-11-28T06:49:16.072Z,6.43
2022-11-28T06:51:45.872Z,6.40
2022-11-28T06:54:15.755Z,5.85
2022-11-28T06:56:45.524Z,7.03
2022-11-28T06:59:15.542Z,6.35
2022-11-28T07:01:45.472Z,6.87
2022-11-28T07:04:15.196Z,6.67
2022-11-28T07:06:44.982Z,6.50
2022-11-28T07:09:14.908Z,6.63
2022-11-28T07:11:44.337Z,6.55
2022-11-28T07:14:14.200Z,7.42
2022-11-28T07:16:44.016Z,6.83
2022-11-28T07:19:13.997Z,6.90
2022-11-28T07:21:43.761Z,7.20
2022-11-28T07:24:13.529Z,6.65
2022-11-28T07:26:43.355Z,7.63
2022-11-28T07:29:15.740Z,7.00
2022-11-28T07:31:45.878Z,7.60
2022-11-28T07:34:15.702Z,8.13
2022-11-28T07:36:45.455Z,7.43
2022-11-28T07:39:17.483Z,8.45
2022-11-28T07:41:47.308Z,8.53
2022-11-28T07:44:19.581Z,8.50
2022-11-28T07:46:49.735Z,9.23
2022-11-28T07:49:19.514Z,8.90
2022-11-28T07:51:49.263Z,9.43
2022-11-28T07:54:19.004Z,8.87
2022-11-28T07:59:20.087Z,9.40
2022-11-28T08:01:49.911Z,9.13
2022-11-28T08:04:19.907Z,9.13
2022-11-28T08:06:49.705Z,9.33
2022-11-28T08:09:19.390Z,9.85
2022-11-28T08:11:50.827Z,10.13
2022-11-28T08:14:20.636Z,9.70
2022-11-28T08:16:51.135Z,9.57
2022-11-28T08:19:24.619Z,10.27
2022-11-28T08:21:52.368Z,10.17
2022-11-28T08:24:22.124Z,9.90
2022-11-28T08:26:51.941Z,10.17
2022-11-28T08:29:21.705Z,11.00
2022-11-28T08:31:51.436Z,10.43
2022-11-28T08:34:20.961Z,10.50
2022-11-28T08:36:50.693Z,10.53
2022-11-28T08:39:24.882Z,10.43
2022-11-28T08:41:51.941Z,10.83
2022-11-28T08:44:21.666Z,9.73
2022-11-28T08:46:51.533Z,10.57
2022-11-28T08:49:21.271Z,10.30
2022-11-28T08:51:51.022Z,10.20
2022-11-28T08:54:20.957Z,10.90
2022-11-28T08:56:50.801Z,10.43
2022-11-28T08:59:20.700Z,10.47
2022-11-28T09:01:50.587Z,11.23
2022-11-28T09:04:20.251Z,10.37
2022-11-28T09:06:50.241Z,10.23
2022-11-28T09:09:21.949Z,9.37
2022-11-28T09:11:51.684Z,9.80
2022-11-28T09:14:21.130Z,9.83
2022-11-28T09:16:51.001Z,9.40
2022-11-28T09:19:20.798Z,9.57
2022-11-28T09:21:56.151Z,9.73
2022-11-28T09:24:21.830Z,9.40
2022-11-28T09:26:51.556Z,9.87
2022-11-28T09:29:21.283Z,9.03
2022-11-28T09:31:51.069Z,9.00
2022-11-28T09:34:21.317Z,9.33
2022-11-28T09:36:51.042Z,8.97
2022-11-28T09:39:20.824Z,9.37
2022-11-28T09:42:05.255Z,9.17
2022-11-28T09:44:47.156Z,9.00
2022-11-28T09:47:19.882Z,9.60
2022-11-28T09:49:52.922Z,9.87
2022-11-28T09:52:28.942Z,9.15
2022-11-28T09:55:02.019Z,8.85
2022-11-28T09:57:34.867Z,9.83
2022-11-28T10:00:08.953Z,9.83
2022-11-28T10:02:43.436Z,10.47
2022-11-28T10:05:40.016Z,10.35
2022-11-28T10:08:47.939Z,10.18
2022-11-28T10:11:38.316Z,10.50
2022-11-28T10:14:12.833Z,11.05
2022-11-28T10:17:04.764Z,10.83
2022-11-28T10:19:53.908Z,11.00
2022-11-28T10:22:17.151Z,11.95
2022-11-28T10:24:55.615Z,10.87
2022-11-28T10:27:28.120Z,11.80
2022-11-28T10:30:03.929Z,11.63
2022-11-28T10:35:07.204Z,11.63
2022-11-28T10:37:39.677Z,12.57
2022-11-28T10:40:20.482Z,13.17
2022-11-28T10:43:07.864Z,13.00
2022-11-28T10:45:43.691Z,13.18
2022-11-28T10:48:39.207Z,12.03
2022-11-28T10:50:53.708Z,12.03
2022-11-28T10:53:47.743Z,12.95
2022-11-28T10:56:32.309Z,12.58
2022-11-28T10:59:05.085Z,11.53
2022-11-28T11:01:37.722Z,11.75
2022-11-28T11:04:18.593Z,12.08
2022-11-28T11:07:22.853Z,11.40
2022-11-28T11:09:50.111Z,12.23
2022-11-28T11:12:25.751Z,11.37
2022-11-28T11:14:55.208Z,12.07
2022-11-28T11:17:38.061Z,12.33
2022-11-28T11:20:36.834Z,11.25
2022-11-28T11:23:21.279Z,10.73
2022-11-28T11:25:58.164Z,11.05
2022-11-28T11:28:36.733Z,12.07
2022-11-28T11:31:10.058Z,11.78
2022-11-28T11:33:40.014Z,12.70
2022-11-28T11:36:23.306Z,12.48
2022-11-28T11:38:54.941Z,12.50
2022-11-28T11:41:33.925Z,12.45
2022-11-28T11:47:00.550Z,12.88
2022-11-28T11:49:42.413Z,12.67
2022-11-28T11:52:18.384Z,13.18
2022-11-28T11:54:59.887Z,13.03
2022-11-28T11:57:38.482Z,11.97
2022-11-28T12:00:18.547Z,13.08
2022-11-28T12:02:54.699Z,13.13
2022-11-28T12:05:28.390Z,12.45
2022-11-28T12:08:04.060Z,13.20
2022-11-28T12:10:37.806Z,15.37
2022-11-28T12:13:09.115Z,13.13
2022-11-28T12:15:47.836Z,13.17
2022-11-28T12:18:38.585Z,13.28
2022-11-28T12:21:17.194Z,12.73
2022-11-28T12:23:58.835Z,12.60
2022-11-28T12:26:43.269Z,12.50
2022-11-28T12:29:24.931Z,12.53
2022-11-28T12:32:15.135Z,12.53
2022-11-28T12:35:24.092Z,11.73
2022-11-28T12:38:19.103Z,12.33
2022-11-28T12:41:00.932Z,12.43
2022-11-28T12:43:57.865Z,12.67
2022-11-28T12:46:33.495Z,12.15
2022-11-28T12:49:09.430Z,12.85
2022-11-28T12:51:41.929Z,13.30
2022-11-28T12:54:23.448Z,13.30
2022-11-28T12:57:07.910Z,12.53
2022-11-28T12:59:43.462Z,14.40
2022-11-28T13:02:22.109Z,16.40
2022-11-28T13:05:00.414Z,16.57
2022-11-28T13:07:41.778Z,16.53
2022-11-28T13:10:18.534Z,17.10
2022-11-28T13:12:56.724Z,17.52
2022-11-28T13:15:45.646Z,18.93
2022-11-28T13:18:18.242Z,19.93
2022-11-28T13:21:07.421Z,21.33
2022-11-28T13:23:55.239Z,23.00
2022-11-28T13:26:42.584Z,22.93
2022-11-28T13:29:17.819Z,24.75
2022-11-28T13:32:19.211Z,24.80
2022-11-28T13:34:50.462Z,25.33
2022-11-28T13:40:19.071Z,27.15
2022-11-28T13:43:10.077Z,26.03
2022-11-28T13:45:39.151Z,25.97
2022-11-28T13:49:13.069Z,27.82
2022-11-28T13:51:31.686Z,27.60
2022-11-28T13:54:21.627Z,28.57
2022-11-28T13:57:10.820Z,29.63
2022-11-28T13:59:40.913Z,29.97
2022-11-28T14:02:23.233Z,31.87
2022-11-28T14:04:53.056Z,31.73
2022-11-28T14:07:25.890Z,31.40
2022-11-28T14:10:10.329Z,32.60
2022-11-28T14:12:43.218Z,31.57
2022-11-28T14:15:28.102Z,32.50
2022-11-28T14:18:39.641Z,31.80
2022-11-28T14:21:05.510Z,32.70
2022-11-28T14:23:40.799Z,31.93
2022-11-28T14:26:25.958Z,33.90
2022-11-28T14:28:55.932Z,34.73
2022-11-28T14:31:34.242Z,35.00
2022-11-28T14:34:09.221Z,35.30
2022-11-28T14:36:42.037Z,35.17
2022-11-28T14:39:19.547Z,33.97
2022-11-28T14:42:09.813Z,34.07
2022-11-28T14:45:03.235Z,35.20
2022-11-28T14:47:34.098Z,35.90
2022-11-28T14:50:10.958Z,35.25
2022-11-28T14:52:42.556Z,37.17
2022-11-28T14:55:16.996Z,35.70
2022-11-28T14:57:55.928Z,35.07
2022-11-28T15:00:43.798Z,34.47
2022-11-28T15:03:38.527Z,35.05
2022-11-28T15:06:21.204Z,35.28
2022-11-28T15:08:56.817Z,34.00
2022-11-28T15:14:24.726Z,35.50
2022-11-28T15:17:00.839Z,37.53
2022-11-28T15:19:33.748Z,35.77
2022-11-28T15:22:05.313Z,34.27
2022-11-28T15:24:39.205Z,36.20
2022-11-28T15:27:13.548Z,37.70
2022-11-28T15:29:45.271Z,35.25
2022-11-28T15:32:16.447Z,36.83
2022-11-28T15:34:49.602Z,37.40
2022-11-28T15:37:20.630Z,37.42
2022-11-28T15:39:50.883Z,35.70
2022-11-28T15:42:29.715Z,38.30
2022-11-28T15:45:02.986Z,39.67
2022-11-28T15:47:33.527Z,37.70
2022-11-28T15:50:13.003Z,36.88
2022-11-28T15:53:00.945Z,39.03
2022-11-28T15:55:34.414Z,37.23
2022-11-28T15:58:23.371Z,38.58
2022-11-28T16:00:56.235Z,38.33
2022-11-28T16:03:28.822Z,37.80
2022-11-28T16:05:59.356Z,37.80
2022-11-28T16:08:34.878Z,37.10
2022-11-28T16:13:35.854Z,37.90
2022-11-28T16:16:12.333Z,38.23
2022-11-28T16:18:53.444Z,39.40
2022-11-28T16:21:29.112Z,38.70
2022-11-28T16:24:00.637Z,39.30
2022-11-28T16:26:38.220Z,40.87
2022-11-28T16:29:14.562Z,40.10
2022-11-28T16:34:15.294Z,40.07
2022-11-28T16:36:48.084Z,38.77
2022-11-28T16:39:19.165Z,43.10
2022-11-28T16:41:54.840Z,38.60
2022-11-28T16:44:26.099Z,40.13
2022-11-28T16:46:58.177Z,40.90
2022-11-28T16:49:39.245Z,40.43
2022-11-28T16:52:26.506Z,39.17
2022-11-28T16:54:57.098Z,40.97
2022-11-28T16:57:32.850Z,40.10
2022-11-28T17:00:00.195Z,41.70
2022-11-28T17:02:29.930Z,40.67
2022-11-28T17:04:59.640Z,38.90
2022-11-28T17:07:29.926Z,40.25
2022-11-28T17:09:59.697Z,40.47
2022-11-28T17:12:33.934Z,39.75
2022-11-28T17:15:04.449Z,40.40
2022-11-28T17:17:36.211Z,40.13
2022-11-28T17:20:08.824Z,41.73
2022-11-28T17:22:44.326Z,39.00
2022-11-28T17:25:18.194Z,39.75
2022-11-28T17:27:52.809Z,39.60
2022-11-28T17:30:22.886Z,41.23
2022-11-28T17:32:52.835Z,42.53
2022-11-28T17:35:25.693Z,39.87
2022-11-28T17:37:55.806Z,41.37
2022-11-28T17:40:34.521Z,40.60
2022-11-28T17:43:04.808Z,41.37
2022-11-28T17:45:36.247Z,39.65
2022-11-28T17:48:08.293Z,41.35
2022-11-28T17:50:38.157Z,40.27
2022-11-28T17:53:10.599Z,39.95
2022-11-28T17:55:42.226Z,39.70
2022-11-28T17:58:21.067Z,40.23
2022-11-28T18:00:56.092Z,41.37
2022-11-28T18:03:24.096Z,39.93
2022-11-28T18:05:55.455Z,38.93
2022-11-28T18:08:25.267Z,39.88
2022-11-28T18:11:06.031Z,39.75
2022-11-28T18:13:36.841Z,41.37
2022-11-28T18:16:11.472Z,40.96
2022-11-28T18:18:41.648Z,40.43
2022-11-28T18:21:12.974Z,39.90
2022-11-28T18:23:44.911Z,41.87
2022-11-28T18:26:16.582Z,40.10
2022-11-28T18:28:46.244Z,39.65
2022-11-28T18:31:24.326Z,40.27
2022-11-28T18:34:01.405Z,39.33
2022-11-28T18:36:28.899Z,40.45
2022-11-28T18:39:01.517Z,38.07
2022-11-28T18:41:32.397Z,39.80
2022-11-28T18:44:05.475Z,42.10
2022-11-28T18:46:36.099Z,41.37
2022-11-28T18:49:05.901Z,39.60
2022-11-28T18:51:36.610Z,40.63
2022-11-28T18:54:10.768Z,41.20
2022-11-28T18:56:40.814Z,41.83
2022-11-28T18:59:11.304Z,40.17
2022-11-28T19:01:42.422Z,40.07
2022-11-28T19:04:15.493Z,39.03
2022-11-28T19:06:47.877Z,39.83
2022-11-28T19:09:18.939Z,40.90
2022-11-28T19:11:48.765Z,41.30
2022-11-28T19:14:21.234Z,41.40
2022-11-28T19:16:52.629Z,40.63
2022-11-28T19:19:22.553Z,41.30
2022-11-28T19:21:52.377Z,42.27
2022-11-28T19:24:21.995Z,40.73
2022-11-28T19:26:52.105Z,41.33
2022-11-28T19:29:22.023Z,41.40
2022-11-28T19:31:52.146Z,39.50
2022-11-28T19:34:22.167Z,40.40
2022-11-28T19:36:52.446Z,36.83
2022-11-28T19:39:25.608Z,38.83
2022-11-28T19:41:56.838Z,37.97
2022-11-28T19:44:29.053Z,37.60
2022-11-28T19:46:58.925Z,37.50
2022-11-28T19:49:29.849Z,37.90
2022-11-28T19:51:59.605Z,37.13
2022-11-28T19:54:29.555Z,38.73
2022-11-28T19:56:59.257Z,39.10
2022-11-28T19:59:30.371Z,36.70
2022-11-28T20:02:02.133Z,35.92
2022-11-28T20:04:32.208Z,37.57
2022-11-28T20:07:01.974Z,37.13
2022-11-28T20:09:32.829Z,36.40
2022-11-28T20:12:02.879Z,36.53
2022-11-28T20:14:32.708Z,35.77
2022-11-28T20:17:02.474Z,36.77
2022-11-28T20:19:33.191Z,37.77
2022-11-28T20:22:02.935Z,37.53
2022-11-28T20:24:32.778Z,36.17
2022-11-28T20:27:02.983Z,36.97
2022-11-28T20:29:33.172Z,35.77
2022-11-28T20:32:03.172Z,37.07
2022-11-28T20:34:32.932Z,36.27
2022-11-28T20:37:02.664Z,37.17
2022-11-28T20:39:32.177Z,38.00
2022-11-28T20:42:02.019Z,36.90
2022-11-28T20:44:31.771Z,36.77
2022-11-28T20:47:01.597Z,34.90
2022-11-28T20:49:31.424Z,35.50
2022-11-28T20:52:01.451Z,36.33
2022-11-28T20:54:31.572Z,37.13
2022-11-28T20:59:33.152Z,34.13
2022-11-28T21:02:02.997Z,36.13
2022-11-28T21:04:32.998Z,34.37
2022-11-28T21:07:02.939Z,33.33
2022-11-28T21:09:32.698Z,31.93
2022-11-28T21:12:02.435Z,33.13
2022-11-28T21:14:32.472Z,33.70
2022-11-28T21:17:02.285Z,34.83
2022-11-28T21:19:32.019Z,36.17
2022-11-28T21:22:01.533Z,32.75
2022-11-28T21:24:31.264Z,35.33
2022-11-28T21:27:00.995Z,34.43
2022-11-28T21:29:30.775Z,35.47
2022-11-28T21:32:00.593Z,36.23
2022-11-28T21:34:30.652Z,35.60
2022-11-28T21:37:00.913Z,35.28
2022-11-28T21:39:30.677Z,34.87
2022-11-28T21:42:01.895Z,37.67
2022-11-28T21:44:31.629Z,34.93
2022-11-28T21:47:01.077Z,34.30
2022-11-28T21:49:30.836Z,37.47
2022-11-28T21:52:00.992Z,36.15
2022-11-28T21:54:30.927Z,35.80
2022-11-28T21:57:00.685Z,36.63
2022-11-28T21:59:30.168Z,37.20
2022-11-28T22:02:00.071Z,35.73
2022-11-28T22:04:30.817Z,36.37
2022-11-28T22:07:00.752Z,35.43
2022-11-28T22:09:30.739Z,38.27
2022-11-28T22:12:01.570Z,35.77
2022-11-28T22:14:36.486Z,35.90
2022-11-28T22:17:03.675Z,34.65
2022-11-28T22:19:33.437Z,35.27
2022-11-28T22:22:03.184Z,37.13
2022-11-28T22:24:33.736Z,37.90
2022-11-28T22:27:05.252Z,34.23
2022-11-28T22:29:35.664Z,34.57
2022-11-28T22:32:06.788Z,36.67
2022-11-28T22:34:39.821Z,35.87
2022-11-28T22:37:08.450Z,33.70
2022-11-28T22:39:38.863Z,36.10
2022-11-28T22:42:10.985Z,35.05
2022-11-28T22:44:41.219Z,36.07
2022-11-28T22:47:11.127Z,36.33
2022-11-28T22:49:41.018Z,35.13
2022-11-28T22:52:11.863Z,35.66
2022-11-28T22:54:41.888Z,34.10
2022-11-28T22:57:12.003Z,35.37
2022-11-28T22:59:41.765Z,33.77
2022-11-28T23:02:12.019Z,34.50
2022-11-28T23:04:42.657Z,34.43
2022-11-28T23:07:12.599Z,33.97
2022-11-28T23:09:42.786Z,34.75
2022-11-28T23:12:12.558Z,34.67
2022-11-28T23:14:43.012Z,34.18
2022-11-28T23:17:12.928Z,34.57
2022-11-28T23:19:42.677Z,38.40
2022-11-28T23:22:12.400Z,38.08
2022-11-28T23:24:42.459Z,36.03
2022-11-28T23:27:12.219Z,34.80
2022-11-28T23:29:42.162Z,38.93
2022-11-28T23:32:11.780Z,37.23
2022-11-28T23:34:42.271Z,35.90
2022-11-28T23:37:13.503Z,35.60
2022-11-28T23:39:43.535Z,35.75
2022-11-28T23:42:15.085Z,36.20
2022-11-28T23:44:45.094Z,34.57
2022-11-28T23:47:15.090Z,33.37
2022-11-28T23:49:44.832Z,34.10
2022-11-28T23:52:14.575Z,35.77
2022-11-28T23:54:44.635Z,35.43
2022-11-28T23:57:14.543Z,36.10
2022-11-28T23:59:44.347Z,34.93
